Airport ID:KRTS
Update Time (UTC):04/06/2020 14:32
Wind Speed (Knots):2
Wind Direction (Magnetic):110
Temperature (°C):16
Dew Point (°C):2
Humidity (%):41
Altimeter (inHg):30.1
Density Altitude (Feet):6200
Visibility:10+
Clouds (Hundreds of feet):CLR
Present Weather:
METAR:METAR KRTS 041430Z AUTO 00000KT 10SM CLR 16/02 A3010 RMK AO2

The data displayed is for advisory purposes only and is not to be used for flight planning or operations.